Disclaimer

Please do not use the information listed here in-flight or in-navigation, as they are not provided to us by the airports but are provided by volunteers, so they might be outdated.

Search


Regions


Airport information page

Radio informations:
CHITA TWR - 118.1 MHz
CHITA VOLMET - 128.3 MHz
CHITA RADAR - 122.0 MHz

Airport informations:
Latitude: 52° 01' 34.74" N
Longitude: 113° 18' 20.00" E
Elevation: 2272 feet - 693 meters
Operating hours: Remarks
Operating agency: Civil government, landing fees and diplomatic clearance may be required
Timezone: UTC+9(+10DT) - Last Sunday in March to last Sunday in October
Fuel: N/A

Runway information:
11/29 - 9187 x 184 feet< - >2800 x 56 meters
11L/29R - 5905 x 245 feet< - >1800 x 75 meters

Recent METARs:
UIAA 170730Z 26008G13MPS 9999 NSC M07/M21 Q1015 R29/410160 NOSIG RMK QFE703/0937
UIAA 170800Z 27007G12MPS 9999 NSC M07/M21 Q1016 R29/410160 NOSIG RMK QFE703/0938
UIAA 170830Z 26006G11MPS 9999 NSC M08/M20 Q1016 R29/410160 NOSIG RMK QFE703/0938

Airport on the map: